Time;durP1;ratioP1;P1;durP2;ratioP2;P2;SDS_P1;SDS_P2;PMS_P1;PMS_P2;Temp;Humidity;BMP_temperature;BMP_pressure;BME280_temperature;BME280_humidity;BME280_pressure;Samples;Min_cycle;Max_cycle;Signal;HPM_P1;HPM_P2
2023/09/14 00:01:48;;;;;;;8.95;3.05;;;;;;;;;;4361272;32;317936;-88
2023/09/14 00:04:16;;;;;;;8.23;3.47;;;;;;;;;;4369140;32;339181;-85
2023/09/14 00:06:43;;;;;;;8.40;3.97;;;;;;;;;;4369321;32;316666;-88
2023/09/14 00:09:12;;;;;;;8.07;3.42;;;;;;;;;;4353520;32;316760;-88
2023/09/14 00:11:40;;;;;;;12.15;4.10;;;;;;;;;;4368854;32;316748;-94
2023/09/14 00:14:07;;;;;;;14.02;3.15;;;;;;;;;;4357106;32;317756;-86
2023/09/14 00:16:35;;;;;;;10.57;3.60;;;;;;;;;;4368095;32;317691;-88
2023/09/14 00:19:02;;;;;;;6.72;3.47;;;;;;;;;;4358420;32;317986;-87
2023/09/14 00:21:30;;;;;;;7.07;3.53;;;;;;;;;;4363816;32;353959;-87
2023/09/14 00:23:58;;;;;;;8.90;3.58;;;;;;;;;;4342553;32;316795;-88
2023/09/14 00:26:27;;;;;;;5.20;2.58;;;;;;;;;;4368393;32;316879;-88
2023/09/14 00:28:54;;;;;;;8.13;3.65;;;;;;;;;;4357011;32;316754;-87
2023/09/14 00:31:26;;;;;;;10.82;3.60;;;;;;;;;;4364077;32;316726;-87
2023/09/14 00:33:55;;;;;;;8.23;4.03;;;;;;;;;;4357109;32;317824;-87
2023/09/14 00:36:22;;;;;;;11.20;4.03;;;;;;;;;;4367489;32;316674;-88
2023/09/14 00:38:50;;;;;;;9.50;4.12;;;;;;;;;;4355767;32;352967;-87
2023/09/14 00:41:17;;;;;;;9.20;3.65;;;;;;;;;;4362708;32;316944;-91
2023/09/14 00:43:46;;;;;;;9.02;4.15;;;;;;;;;;4368459;32;316592;-88
2023/09/14 00:46:14;;;;;;;8.32;3.42;;;;;;;;;;4354800;32;416256;-87
2023/09/14 00:48:41;;;;;;;9.60;4.20;;;;;;;;;;4366686;32;316586;-92
2023/09/14 00:51:09;;;;;;;7.00;3.85;;;;;;;;;;4354178;32;316661;-90
2023/09/14 00:53:37;;;;;;;9.98;3.83;;;;;;;;;;4366503;32;316492;-89
2023/09/14 00:56:06;;;;;;;5.93;3.62;;;;;;;;;;4357933;32;316816;-90
2023/09/14 00:58:34;;;;;;;13.07;3.60;;;;;;;;;;4367307;32;343530;-90
2023/09/14 01:01:08;;;;;;;5.30;2.78;;;;;;;;;;4357119;32;317830;-89
2023/09/14 01:03:36;;;;;;;6.55;3.95;;;;;;;;;;4367650;32;316999;-88
2023/09/14 01:06:03;;;;;;;13.25;2.85;;;;;;;;;;4355576;32;316780;-89
2023/09/14 01:08:31;;;;;;;5.78;3.15;;;;;;;;;;4365026;32;317724;-85
2023/09/14 01:10:58;;;;;;;9.30;3.30;;;;;;;;;;4356811;32;316838;-90
2023/09/14 01:13:40;;;;;;;9.88;3.67;;;;;;;;;;4363419;32;316795;-88
2023/09/14 01:16:19;;;;;;;6.62;3.67;;;;;;;;;;4355888;32;316927;-92
2023/09/14 01:18:52;;;;;;;6.78;3.53;;;;;;;;;;4366595;32;316784;-84
2023/09/14 01:21:54;;;;;;;8.18;3.53;;;;;;;;;;4350202;32;386745;-85
2023/09/14 01:24:36;;;;;;;14.48;4.47;;;;;;;;;;4354106;32;417154;-86
2023/09/14 01:27:07;;;;;;;9.32;3.58;;;;;;;;;;4352673;32;318480;-85
2023/09/14 01:29:35;;;;;;;8.40;4.60;;;;;;;;;;4367141;32;316597;-89
2023/09/14 01:32:02;;;;;;;8.25;3.75;;;;;;;;;;4354417;32;316755;-84
2023/09/14 01:34:30;;;;;;;7.53;3.85;;;;;;;;;;4366989;32;316764;-84
2023/09/14 01:37:02;;;;;;;10.13;3.25;;;;;;;;;;4356858;32;316778;-91
2023/09/14 01:39:30;;;;;;;8.90;3.97;;;;;;;;;;4365327;32;317705;-92
2023/09/14 01:41:57;;;;;;;7.30;3.40;;;;;;;;;;4355266;32;316636;-86
2023/09/14 01:44:27;;;;;;;9.85;3.85;;;;;;;;;;4366759;32;316722;-88
2023/09/14 01:46:55;;;;;;;11.45;3.83;;;;;;;;;;4356460;32;316740;-88
2023/09/14 01:49:22;;;;;;;7.95;4.03;;;;;;;;;;4359991;32;317796;-89
2023/09/14 01:51:49;;;;;;;8.90;4.30;;;;;;;;;;4356526;32;316926;-88
2023/09/14 01:54:17;;;;;;;7.97;4.07;;;;;;;;;;4364234;32;316832;-86
2023/09/14 01:56:44;;;;;;;14.70;5.12;;;;;;;;;;4371230;32;316580;-85
2023/09/14 01:59:12;;;;;;;7.07;3.75;;;;;;;;;;4353009;32;347222;-85
2023/09/14 02:01:41;;;;;;;5.65;3.97;;;;;;;;;;4370546;32;317622;-86
2023/09/14 02:04:08;;;;;;;11.70;4.45;;;;;;;;;;4357308;32;316601;-91
2023/09/14 02:06:35;;;;;;;6.87;3.67;;;;;;;;;;4369003;32;317812;-85
2023/09/14 02:09:05;;;;;;;8.25;4.20;;;;;;;;;;4359214;32;316753;-87
2023/09/14 02:11:32;;;;;;;17.55;4.75;;;;;;;;;;4371055;32;316629;-85
2023/09/14 02:14:00;;;;;;;23.77;3.90;;;;;;;;;;4357927;32;317699;-85
2023/09/14 02:16:27;;;;;;;11.43;4.72;;;;;;;;;;4368852;32;317794;-85
2023/09/14 02:18:57;;;;;;;12.00;3.72;;;;;;;;;;4358760;32;317819;-86
2023/09/14 02:21:25;;;;;;;9.18;3.47;;;;;;;;;;4367075;32;318096;-89
2023/09/14 02:23:52;;;;;;;7.03;3.12;;;;;;;;;;4354205;32;316972;-86
2023/09/14 02:26:19;;;;;;;12.55;4.28;;;;;;;;;;4369305;32;316679;-86
2023/09/14 02:28:46;;;;;;;11.27;3.58;;;;;;;;;;4370300;32;317742;-85
2023/09/14 02:31:15;;;;;;;10.55;3.58;;;;;;;;;;4351916;32;417367;-87
2023/09/14 02:33:42;;;;;;;11.70;3.80;;;;;;;;;;4368347;32;317873;-86
2023/09/14 02:36:11;;;;;;;17.60;4.15;;;;;;;;;;4358294;32;317824;-86
2023/09/14 02:38:38;;;;;;;13.18;4.37;;;;;;;;;;4368092;32;317850;-90
2023/09/14 02:41:06;;;;;;;9.80;4.07;;;;;;;;;;4358429;32;317933;-91
2023/09/14 02:43:33;;;;;;;7.00;4.20;;;;;;;;;;4365901;32;316936;-88
2023/09/14 02:46:01;;;;;;;12.75;4.47;;;;;;;;;;4359914;32;316942;-90
2023/09/14 02:48:28;;;;;;;9.35;4.03;;;;;;;;;;4369494;32;317860;-89
2023/09/14 02:50:55;;;;;;;8.55;4.18;;;;;;;;;;4359306;32;315819;-91
2023/09/14 02:53:24;;;;;;;9.77;4.55;;;;;;;;;;4364156;32;316586;-93
2023/09/14 02:55:52;;;;;;;14.13;4.15;;;;;;;;;;4358225;32;346610;-92
2023/09/14 02:58:20;;;;;;;6.93;3.92;;;;;;;;;;4366558;32;317690;-90
2023/09/14 03:00:48;;;;;;;8.98;3.95;;;;;;;;;;4364466;32;317068;-85
2023/09/14 03:03:15;;;;;;;10.50;4.22;;;;;;;;;;4351912;32;385174;-93
2023/09/14 03:05:42;;;;;;;15.52;4.50;;;;;;;;;;4366501;32;318077;-90
2023/09/14 03:08:10;;;;;;;13.77;4.53;;;;;;;;;;4358288;32;317770;-94
2023/09/14 03:10:39;;;;;;;8.38;4.37;;;;;;;;;;4367964;32;317715;-95
2023/09/14 03:13:06;;;;;;;9.85;4.10;;;;;;;;;;4353325;32;317336;-92
2023/09/14 03:15:34;;;;;;;11.55;5.12;;;;;;;;;;4369246;32;316690;-87
2023/09/14 03:18:02;;;;;;;15.57;4.25;;;;;;;;;;4358716;32;324000;-87
2023/09/14 03:20:29;;;;;;;9.63;4.43;;;;;;;;;;4367912;32;317843;-88
2023/09/14 03:22:58;;;;;;;11.10;4.70;;;;;;;;;;4357352;32;316887;-87
2023/09/14 03:25:25;;;;;;;10.70;4.95;;;;;;;;;;4363910;32;318107;-88
2023/09/14 03:27:54;;;;;;;13.38;4.65;;;;;;;;;;4354236;32;319482;-88
2023/09/14 03:30:22;;;;;;;15.68;5.00;;;;;;;;;;4368585;32;316767;-89
2023/09/14 03:32:50;;;;;;;21.25;4.78;;;;;;;;;;4356458;32;318144;-87
2023/09/14 03:35:17;;;;;;;12.95;4.80;;;;;;;;;;4363685;32;317740;-88
2023/09/14 03:37:44;;;;;;;10.40;4.28;;;;;;;;;;4368714;32;317965;-88
2023/09/14 03:40:13;;;;;;;14.55;4.43;;;;;;;;;;4355736;32;337179;-88
2023/09/14 03:42:40;;;;;;;11.00;4.28;;;;;;;;;;4367410;32;317896;-87
2023/09/14 03:45:10;;;;;;;9.63;3.65;;;;;;;;;;4355181;32;318016;-92
2023/09/14 03:47:38;;;;;;;7.60;4.90;;;;;;;;;;4368129;32;316908;-93
2023/09/14 03:50:06;;;;;;;10.30;4.80;;;;;;;;;;4358675;32;316685;-87
2023/09/14 03:52:33;;;;;;;14.50;4.85;;;;;;;;;;4368584;32;317520;-89
2023/09/14 03:55:01;;;;;;;16.70;4.22;;;;;;;;;;4354933;32;317965;-93
2023/09/14 03:57:29;;;;;;;13.82;4.85;;;;;;;;;;4365570;32;317937;-86
2023/09/14 03:59:56;;;;;;;9.82;5.60;;;;;;;;;;4355164;32;317941;-93
2023/09/14 04:02:26;;;;;;;24.95;4.68;;;;;;;;;;4368737;32;317016;-90
2023/09/14 04:04:53;;;;;;;8.60;5.55;;;;;;;;;;4355315;32;318071;-86
2023/09/14 04:07:21;;;;;;;11.23;6.10;;;;;;;;;;4365428;32;317451;-86
2023/09/14 04:09:49;;;;;;;9.15;4.55;;;;;;;;;;4359644;32;317763;-87
2023/09/14 04:12:16;;;;;;;9.77;5.22;;;;;;;;;;4366682;32;317007;-88
2023/09/14 04:14:43;;;;;;;16.75;5.20;;;;;;;;;;4368758;32;317053;-94
2023/09/14 04:17:11;;;;;;;14.77;4.97;;;;;;;;;;4353872;32;318095;-89
2023/09/14 04:19:43;;;;;;;13.57;5.15;;;;;;;;;;4365340;32;317668;-89
2023/09/14 04:22:10;;;;;;;16.50;5.45;;;;;;;;;;4358741;32;317967;-88
2023/09/14 04:24:38;;;;;;;19.62;6.57;;;;;;;;;;4367134;32;318100;-90
2023/09/14 04:27:06;;;;;;;15.38;5.47;;;;;;;;;;4352824;32;317742;-88
2023/09/14 04:29:33;;;;;;;14.18;5.00;;;;;;;;;;4357139;32;317701;-86
2023/09/14 04:32:01;;;;;;;16.42;5.35;;;;;;;;;;4357962;32;318052;-89
2023/09/14 04:34:28;;;;;;;13.20;6.28;;;;;;;;;;4364257;32;318145;-89
2023/09/14 04:36:59;;;;;;;12.00;5.60;;;;;;;;;;4353753;32;317982;-90
2023/09/14 04:39:27;;;;;;;10.77;4.78;;;;;;;;;;4363980;32;317662;-85
2023/09/14 04:41:55;;;;;;;11.10;5.07;;;;;;;;;;4356927;32;317829;-88
2023/09/14 04:44:22;;;;;;;15.23;5.20;;;;;;;;;;4358097;32;317888;-88
2023/09/14 04:46:50;;;;;;;10.23;4.82;;;;;;;;;;4355837;32;317787;-88
2023/09/14 04:49:17;;;;;;;13.43;4.53;;;;;;;;;;4362755;32;317786;-85
2023/09/14 04:51:44;;;;;;;11.93;5.22;;;;;;;;;;4365567;32;317864;-85
2023/09/14 04:54:13;;;;;;;20.02;5.18;;;;;;;;;;4356147;32;337997;-87
2023/09/14 04:56:41;;;;;;;13.98;5.70;;;;;;;;;;4366336;32;317857;-88
2023/09/14 04:59:08;;;;;;;11.00;5.07;;;;;;;;;;4353796;32;317757;-85
2023/09/14 05:01:36;;;;;;;11.98;5.20;;;;;;;;;;4366840;32;317760;-88
2023/09/14 05:04:03;;;;;;;15.55;5.15;;;;;;;;;;4354939;32;317957;-85
2023/09/14 05:06:31;;;;;;;9.75;4.78;;;;;;;;;;4366231;32;317625;-87
2023/09/14 05:09:00;;;;;;;13.27;5.18;;;;;;;;;;4355464;32;316949;-85
2023/09/14 05:11:29;;;;;;;12.93;6.20;;;;;;;;;;4367239;32;327280;-87
2023/09/14 05:13:56;;;;;;;16.87;5.47;;;;;;;;;;4355520;32;318179;-87
2023/09/14 05:16:23;;;;;;;13.57;5.28;;;;;;;;;;4366598;32;317755;-85
2023/09/14 05:18:50;;;;;;;14.63;6.57;;;;;;;;;;4357090;32;318040;-88
2023/09/14 05:21:17;;;;;;;19.95;9.73;;;;;;;;;;4363379;32;317644;-86
2023/09/14 05:23:45;;;;;;;18.08;10.93;;;;;;;;;;4366732;32;317921;-87
2023/09/14 05:26:12;;;;;;;18.62;9.73;;;;;;;;;;4355898;32;319011;-86
2023/09/14 05:28:42;;;;;;;23.67;7.78;;;;;;;;;;4366657;32;317835;-88
2023/09/14 05:31:10;;;;;;;13.15;5.82;;;;;;;;;;4357099;32;317910;-86
2023/09/14 05:33:37;;;;;;;11.05;5.62;;;;;;;;;;4368024;32;317769;-88
2023/09/14 05:36:05;;;;;;;11.70;4.28;;;;;;;;;;4359260;32;317798;-87
2023/09/14 05:38:33;;;;;;;14.95;5.18;;;;;;;;;;4371317;32;317760;-85
2023/09/14 05:41:00;;;;;;;11.10;6.05;;;;;;;;;;4360619;32;317968;-84
2023/09/14 05:43:27;;;;;;;33.33;6.60;;;;;;;;;;4366790;32;317883;-84
2023/09/14 05:45:56;;;;;;;24.15;6.70;;;;;;;;;;4359719;32;358222;-84
2023/09/14 05:48:24;;;;;;;15.88;6.15;;;;;;;;;;4369439;32;318017;-84
2023/09/14 05:50:51;;;;;;;15.55;6.95;;;;;;;;;;4357926;32;317811;-84
2023/09/14 05:53:19;;;;;;;20.37;7.62;;;;;;;;;;4365761;32;317969;-84
2023/09/14 05:55:47;;;;;;;26.58;9.25;;;;;;;;;;4370975;32;318043;-91
2023/09/14 05:58:14;;;;;;;20.10;6.28;;;;;;;;;;4357425;32;418676;-88
2023/09/14 06:00:42;;;;;;;19.58;5.60;;;;;;;;;;4370888;32;317836;-92
2023/09/14 06:03:11;;;;;;;19.40;7.07;;;;;;;;;;4357180;32;317848;-86
2023/09/14 06:05:39;;;;;;;11.23;5.10;;;;;;;;;;4370620;32;318076;-84
2023/09/14 06:08:07;;;;;;;12.63;5.57;;;;;;;;;;4356594;32;317999;-86
2023/09/14 06:10:34;;;;;;;11.18;5.05;;;;;;;;;;4369248;32;317771;-85
2023/09/14 06:13:01;;;;;;;12.15;4.20;;;;;;;;;;4355834;32;317770;-86
2023/09/14 06:15:29;;;;;;;10.25;4.50;;;;;;;;;;4369077;32;318027;-88
2023/09/14 06:17:56;;;;;;;7.93;4.30;;;;;;;;;;4358820;32;318265;-86
2023/09/14 06:20:25;;;;;;;19.65;4.85;;;;;;;;;;4367914;32;315604;-87
2023/09/14 06:22:53;;;;;;;16.27;4.82;;;;;;;;;;4357546;32;317916;-87
2023/09/14 06:25:22;;;;;;;11.65;5.50;;;;;;;;;;4365529;32;318232;-86
2023/09/14 06:27:50;;;;;;;13.18;5.30;;;;;;;;;;4358660;32;375817;-86
2023/09/14 06:30:17;;;;;;;16.25;5.45;;;;;;;;;;4368304;32;317534;-86
2023/09/14 06:32:45;;;;;;;11.32;5.55;;;;;;;;;;4368725;32;318154;-87
2023/09/14 06:35:12;;;;;;;8.35;5.40;;;;;;;;;;4354799;32;318095;-87
2023/09/14 06:37:41;;;;;;;16.27;6.10;;;;;;;;;;4368594;32;317010;-88
2023/09/14 06:40:09;;;;;;;15.15;5.50;;;;;;;;;;4357087;32;317908;-87
2023/09/14 06:42:37;;;;;;;20.33;6.60;;;;;;;;;;4368108;32;317772;-86
2023/09/14 06:45:07;;;;;;;19.48;6.03;;;;;;;;;;4352445;32;355115;-87
2023/09/14 06:47:34;;;;;;;18.20;5.90;;;;;;;;;;4370113;32;317732;-87
2023/09/14 06:50:02;;;;;;;12.95;5.62;;;;;;;;;;4358180;32;317783;-83
2023/09/14 06:52:30;;;;;;;15.60;5.15;;;;;;;;;;4368743;32;317653;-85
2023/09/14 06:55:02;;;;;;;17.00;5.65;;;;;;;;;;4358672;32;317863;-84
2023/09/14 06:57:30;;;;;;;11.55;5.25;;;;;;;;;;4370135;32;317618;-86
2023/09/14 06:59:57;;;;;;;18.25;5.72;;;;;;;;;;4357581;32;317907;-83
2023/09/14 07:02:24;;;;;;;18.10;5.93;;;;;;;;;;4367329;32;317580;-83
2023/09/14 07:04:52;;;;;;;10.52;5.62;;;;;;;;;;4358022;32;317763;-80
2023/09/14 07:07:19;;;;;;;14.45;6.47;;;;;;;;;;4363405;32;317723;-79
2023/09/14 07:09:46;;;;;;;20.98;6.72;;;;;;;;;;4368051;32;318009;-83
2023/09/14 07:12:15;;;;;;;27.27;5.12;;;;;;;;;;4355925;32;417477;-83
2023/09/14 07:14:43;;;;;;;14.40;6.03;;;;;;;;;;4369591;32;318035;-83
2023/09/14 07:17:10;;;;;;;13.70;5.50;;;;;;;;;;4352676;32;317722;-86
2023/09/14 07:19:37;;;;;;;8.73;5.00;;;;;;;;;;4367343;32;317933;-83
2023/09/14 07:22:05;;;;;;;11.73;5.10;;;;;;;;;;4357632;32;316747;-82
2023/09/14 07:24:32;;;;;;;14.48;5.90;;;;;;;;;;4367555;32;317676;-86
2023/09/14 07:27:00;;;;;;;8.90;4.45;;;;;;;;;;4359652;32;317926;-81
2023/09/14 07:29:29;;;;;;;26.30;5.57;;;;;;;;;;4364989;32;316755;-86
2023/09/14 07:31:57;;;;;;;19.30;5.22;;;;;;;;;;4354909;32;317993;-78
2023/09/14 07:34:25;;;;;;;13.15;5.03;;;;;;;;;;4365498;32;317808;-78
2023/09/14 07:36:53;;;;;;;8.52;4.75;;;;;;;;;;4354119;32;318113;-78
2023/09/14 07:39:20;;;;;;;13.50;5.12;;;;;;;;;;4363194;32;316946;-78
2023/09/14 07:41:48;;;;;;;7.60;4.72;;;;;;;;;;4366809;32;317904;-87
2023/09/14 07:44:16;;;;;;;26.05;5.53;;;;;;;;;;4355660;32;415828;-87
2023/09/14 07:46:45;;;;;;;11.48;5.15;;;;;;;;;;4354747;32;317947;-88
2023/09/14 07:49:13;;;;;;;9.00;4.35;;;;;;;;;;4335805;32;318425;-88
2023/09/14 07:51:41;;;;;;;11.18;4.82;;;;;;;;;;4363762;32;326771;-87
2023/09/14 07:54:09;;;;;;;20.83;4.95;;;;;;;;;;4356279;32;317966;-81
2023/09/14 07:56:37;;;;;;;8.68;3.92;;;;;;;;;;4368024;32;316736;-79
2023/09/14 07:59:09;;;;;;;12.07;5.70;;;;;;;;;;4347801;32;316670;-81
2023/09/14 08:01:37;;;;;;;20.92;5.22;;;;;;;;;;4366660;32;318003;-79
2023/09/14 08:04:09;;;;;;;18.20;5.23;;;;;;;;;;4355071;32;318612;-79
2023/09/14 08:06:36;;;;;;;11.95;5.10;;;;;;;;;;4368165;32;317982;-82
2023/09/14 08:09:09;;;;;;;11.65;5.87;;;;;;;;;;4352451;32;345866;-82
2023/09/14 08:11:37;;;;;;;8.98;5.70;;;;;;;;;;4366180;32;316527;-88
2023/09/14 08:14:05;;;;;;;12.63;5.05;;;;;;;;;;4355811;32;315795;-85
2023/09/14 08:16:33;;;;;;;16.45;5.97;;;;;;;;;;4366870;32;318116;-88
2023/09/14 08:19:04;;;;;;;14.57;6.10;;;;;;;;;;4356960;32;318141;-86
2023/09/14 08:21:38;;;;;;;15.90;5.20;;;;;;;;;;4366606;32;317717;-84
2023/09/14 08:24:07;;;;;;;13.13;5.95;;;;;;;;;;4354340;32;317950;-83
2023/09/14 08:26:34;;;;;;;8.90;4.20;;;;;;;;;;4368415;32;318025;-81
2023/09/14 08:29:03;;;;;;;8.68;4.60;;;;;;;;;;4352339;32;316812;-80
2023/09/14 08:31:30;;;;;;;15.25;5.15;;;;;;;;;;4364995;32;341493;-83
2023/09/14 08:33:59;;;;;;;15.00;5.05;;;;;;;;;;4352893;32;317819;-86
2023/09/14 08:36:27;;;;;;;12.75;4.62;;;;;;;;;;4367526;32;318236;-83
2023/09/14 08:38:56;;;;;;;9.48;4.18;;;;;;;;;;4355832;32;317847;-84
2023/09/14 08:41:31;;;;;;;9.65;4.35;;;;;;;;;;4337142;32;317066;-87
2023/09/14 08:44:01;;;;;;;9.50;4.40;;;;;;;;;;4354729;32;316924;-82
2023/09/14 08:46:29;;;;;;;10.68;4.82;;;;;;;;;;4369111;32;316846;-83
2023/09/14 08:48:58;;;;;;;12.93;5.62;;;;;;;;;;4350837;32;317919;-86
2023/09/14 08:51:27;;;;;;;9.00;4.22;;;;;;;;;;4363528;32;317792;-84
2023/09/14 08:53:59;;;;;;;23.70;5.10;;;;;;;;;;4334155;32;317077;-86
2023/09/14 08:56:29;;;;;;;9.07;3.53;;;;;;;;;;4367130;32;317737;-83
2023/09/14 08:58:58;;;;;;;9.80;4.40;;;;;;;;;;4358324;32;316696;-82
2023/09/14 09:01:25;;;;;;;12.15;4.62;;;;;;;;;;4362943;32;316652;-82
2023/09/14 09:03:53;;;;;;;8.93;3.90;;;;;;;;;;4355452;32;317975;-87
2023/09/14 09:06:21;;;;;;;17.35;4.62;;;;;;;;;;4364883;32;316811;-82
2023/09/14 09:08:50;;;;;;;13.75;4.72;;;;;;;;;;4364481;32;316817;-83
2023/09/14 09:11:19;;;;;;;7.03;4.03;;;;;;;;;;4363806;32;317795;-81
2023/09/14 09:13:49;;;;;;;8.52;4.18;;;;;;;;;;4366624;32;316788;-81
2023/09/14 09:16:16;;;;;;;12.90;4.15;;;;;;;;;;4354317;32;416107;-81
2023/09/14 09:19:10;;;;;;;6.15;3.85;;;;;;;;;;4368370;32;318206;-80
2023/09/14 09:21:38;;;;;;;15.63;5.75;;;;;;;;;;4334087;32;417603;-80
2023/09/14 09:24:08;;;;;;;12.15;3.55;;;;;;;;;;4344929;32;318014;-80
2023/09/14 09:26:40;;;;;;;9.60;4.28;;;;;;;;;;4372330;32;317975;-80
2023/09/14 09:29:17;;;;;;;13.98;5.00;;;;;;;;;;4355331;32;316883;-80
2023/09/14 09:31:46;;;;;;;15.07;4.00;;;;;;;;;;4369504;32;317677;-79
2023/09/14 09:34:15;;;;;;;8.55;4.35;;;;;;;;;;4356766;32;416209;-84
2023/09/14 09:36:42;;;;;;;12.55;4.80;;;;;;;;;;4369112;32;316854;-82
2023/09/14 09:39:13;;;;;;;8.02;4.03;;;;;;;;;;4352316;32;324686;-83
2023/09/14 09:41:45;;;;;;;10.82;3.87;;;;;;;;;;4365023;32;316490;-81
2023/09/14 09:44:15;;;;;;;10.70;4.10;;;;;;;;;;4358116;32;317077;-81
2023/09/14 09:46:43;;;;;;;6.78;3.70;;;;;;;;;;4367101;32;316623;-80
2023/09/14 09:49:18;;;;;;;13.32;4.62;;;;;;;;;;4355188;32;315839;-82
2023/09/14 09:51:46;;;;;;;14.00;4.10;;;;;;;;;;4368599;32;317821;-81
2023/09/14 09:54:14;;;;;;;9.70;3.87;;;;;;;;;;4354739;32;417023;-81
2023/09/14 09:56:43;;;;;;;22.65;5.30;;;;;;;;;;4365843;32;317087;-80
2023/09/14 09:59:13;;;;;;;9.63;4.18;;;;;;;;;;4352649;32;317810;-84
2023/09/14 10:01:44;;;;;;;8.15;4.62;;;;;;;;;;4367510;32;316673;-82
2023/09/14 10:04:12;;;;;;;12.65;4.32;;;;;;;;;;4356260;32;316610;-81
2023/09/14 10:06:40;;;;;;;7.90;3.85;;;;;;;;;;4366398;32;317615;-85
2023/09/14 10:09:10;;;;;;;11.30;4.50;;;;;;;;;;4354692;32;317072;-81
2023/09/14 10:11:38;;;;;;;11.57;3.95;;;;;;;;;;4366745;32;317751;-85
2023/09/14 10:14:10;;;;;;;23.55;4.55;;;;;;;;;;4357049;32;317986;-81
2023/09/14 10:16:42;;;;;;;6.62;4.72;;;;;;;;;;4370678;32;317674;-85
2023/09/14 10:19:10;;;;;;;12.07;5.07;;;;;;;;;;4357638;32;316840;-80
2023/09/14 10:21:39;;;;;;;8.10;3.85;;;;;;;;;;4370350;32;317689;-80
2023/09/14 10:24:08;;;;;;;9.57;4.60;;;;;;;;;;4358280;32;316931;-81
2023/09/14 10:26:37;;;;;;;10.27;4.70;;;;;;;;;;4370194;32;317097;-79
2023/09/14 10:29:07;;;;;;;8.18;4.20;;;;;;;;;;4357586;32;318084;-80
2023/09/14 10:31:36;;;;;;;12.55;4.97;;;;;;;;;;4370708;32;317151;-80
2023/09/14 10:34:05;;;;;;;8.85;4.15;;;;;;;;;;4359633;32;317763;-80
2023/09/14 10:36:34;;;;;;;14.63;4.87;;;;;;;;;;4370550;32;316904;-80
2023/09/14 10:39:05;;;;;;;7.93;4.43;;;;;;;;;;4357229;32;317963;-79
2023/09/14 10:41:33;;;;;;;9.65;3.67;;;;;;;;;;4370429;32;316992;-79
2023/09/14 10:44:00;;;;;;;12.88;4.47;;;;;;;;;;4357711;32;316905;-80
2023/09/14 10:46:35;;;;;;;7.18;3.40;;;;;;;;;;4370419;32;318150;-80
2023/09/14 10:49:04;;;;;;;11.20;4.20;;;;;;;;;;4355112;32;316681;-81
2023/09/14 11:14:29;;;;;;;10.20;3.90;;;;;;;;;;4439761;32;20279;-83
2023/09/14 11:16:57;;;;;;;13.13;4.18;;;;;;;;;;4378402;32;317535;-79
2023/09/14 11:19:48;;;;;;;11.85;4.62;;;;;;;;;;4398991;32;318109;-87
2023/09/14 11:22:17;;;;;;;6.47;3.78;;;;;;;;;;4367512;32;417567;-80
2023/09/14 11:24:45;;;;;;;11.20;5.35;;;;;;;;;;4385981;32;317744;-82
2023/09/14 11:27:21;;;;;;;7.30;4.35;;;;;;;;;;4384348;32;324879;-83
2023/09/14 11:29:49;;;;;;;10.07;4.15;;;;;;;;;;4400726;32;317646;-87
2023/09/14 11:32:22;;;;;;;9.13;4.15;;;;;;;;;;4391569;32;417751;-81
2023/09/14 11:34:48;;;;;;;9.23;4.47;;;;;;;;;;4380358;32;317264;-80
2023/09/14 11:37:16;;;;;;;15.65;4.10;;;;;;;;;;4380275;32;317229;-84
2023/09/14 11:39:52;;;;;;;9.32;4.28;;;;;;;;;;4389417;32;318663;-83
2023/09/14 11:42:19;;;;;;;15.23;4.25;;;;;;;;;;4388758;32;416253;-81
2023/09/14 11:44:46;;;;;;;9.05;4.20;;;;;;;;;;4400157;32;343703;-82
2023/09/14 11:47:14;;;;;;;7.53;3.95;;;;;;;;;;4381948;32;317556;-81
2023/09/14 11:49:42;;;;;;;12.35;4.18;;;;;;;;;;4389383;32;316576;-85
2023/09/14 11:52:10;;;;;;;8.68;3.50;;;;;;;;;;4376508;32;318300;-80
2023/09/14 11:54:37;;;;;;;16.80;4.28;;;;;;;;;;4386158;32;317200;-89
2023/09/14 11:57:05;;;;;;;9.38;3.65;;;;;;;;;;4372350;32;318427;-82
2023/09/14 11:59:32;;;;;;;12.52;4.20;;;;;;;;;;4388507;32;317494;-82
2023/09/14 12:02:00;;;;;;;9.77;4.18;;;;;;;;;;4384047;32;318216;-79
2023/09/14 12:04:29;;;;;;;10.52;4.10;;;;;;;;;;4400337;32;317084;-79
2023/09/14 12:06:58;;;;;;;13.90;3.97;;;;;;;;;;4393166;32;318680;-83
2023/09/14 12:09:39;;;;;;;8.15;3.80;;;;;;;;;;4397773;32;318034;-82
2023/09/14 12:12:07;;;;;;;6.85;3.92;;;;;;;;;;4392802;32;317362;-84
2023/09/14 12:14:37;;;;;;;15.15;4.55;;;;;;;;;;4398144;32;317256;-80
2023/09/14 12:17:18;;;;;;;16.58;4.43;;;;;;;;;;4373422;32;318175;-79
2023/09/14 12:19:49;;;;;;;8.27;4.18;;;;;;;;;;4391712;32;318123;-81
2023/09/14 12:22:16;;;;;;;9.68;3.72;;;;;;;;;;4380483;32;416319;-84
2023/09/14 12:24:44;;;;;;;11.70;4.25;;;;;;;;;;4391832;32;316515;-82
2023/09/14 12:27:11;;;;;;;11.57;4.40;;;;;;;;;;4367190;32;317602;-85
2023/09/14 12:29:40;;;;;;;6.25;4.37;;;;;;;;;;4389991;32;318286;-86
2023/09/14 12:32:06;;;;;;;7.60;3.90;;;;;;;;;;4372985;32;317422;-88
2023/09/14 12:34:34;;;;;;;9.32;4.20;;;;;;;;;;4389003;32;317116;-81
2023/09/14 12:37:04;;;;;;;8.85;3.47;;;;;;;;;;4360458;32;316718;-80
2023/09/14 12:39:32;;;;;;;11.50;4.45;;;;;;;;;;4378262;32;316480;-80
2023/09/14 12:42:02;;;;;;;7.10;3.80;;;;;;;;;;4366541;32;354273;-80
2023/09/14 12:44:29;;;;;;;13.05;3.55;;;;;;;;;;4380561;32;316389;-83
2023/09/14 12:46:56;;;;;;;7.70;4.97;;;;;;;;;;4380041;32;318222;-80
2023/09/14 12:49:23;;;;;;;10.38;4.03;;;;;;;;;;4385514;32;317463;-87
2023/09/14 12:51:51;;;;;;;15.20;4.37;;;;;;;;;;4364892;32;318333;-84
2023/09/14 12:54:24;;;;;;;9.13;4.10;;;;;;;;;;4377787;32;318342;-81
2023/09/14 12:56:51;;;;;;;10.75;4.00;;;;;;;;;;4367850;32;317262;-80
2023/09/14 12:59:17;;;;;;;10.77;4.12;;;;;;;;;;4366382;32;318474;-84
2023/09/14 13:01:44;;;;;;;7.03;4.68;;;;;;;;;;4389539;32;318248;-84
2023/09/14 13:04:11;;;;;;;13.48;4.65;;;;;;;;;;4382223;32;317472;-85
2023/09/14 13:06:38;;;;;;;9.50;3.83;;;;;;;;;;4392936;32;317761;-81
2023/09/14 13:09:08;;;;;;;9.27;4.03;;;;;;;;;;4367968;32;317222;-81
2023/09/14 13:11:38;;;;;;;6.62;3.95;;;;;;;;;;4393178;32;317238;-80
2023/09/14 13:14:06;;;;;;;23.08;5.10;;;;;;;;;;4382090;32;317444;-80
2023/09/14 13:16:33;;;;;;;11.18;4.03;;;;;;;;;;4392359;32;318341;-83
2023/09/14 13:19:01;;;;;;;7.03;3.45;;;;;;;;;;4374155;32;317729;-80
2023/09/14 13:21:28;;;;;;;9.85;4.22;;;;;;;;;;4392321;32;316680;-84
2023/09/14 13:23:55;;;;;;;9.20;4.12;;;;;;;;;;4382412;32;317533;-85
2023/09/14 13:26:22;;;;;;;9.98;3.95;;;;;;;;;;4388354;32;316938;-85
2023/09/14 13:28:51;;;;;;;10.75;4.32;;;;;;;;;;4382173;32;317602;-84
2023/09/14 13:31:18;;;;;;;12.18;4.43;;;;;;;;;;4385094;32;318592;-82
2023/09/14 13:33:44;;;;;;;12.65;3.87;;;;;;;;;;4391191;32;317550;-81
2023/09/14 13:36:11;;;;;;;8.43;4.28;;;;;;;;;;4383441;32;318345;-86
2023/09/14 13:38:39;;;;;;;8.93;4.28;;;;;;;;;;4389366;32;316596;-90
2023/09/14 13:41:06;;;;;;;15.10;4.35;;;;;;;;;;4377561;32;318476;-84
2023/09/14 13:43:32;;;;;;;11.43;5.28;;;;;;;;;;4376942;32;317948;-85
2023/09/14 13:46:00;;;;;;;12.68;4.05;;;;;;;;;;4376990;32;317943;-85
2023/09/14 13:48:27;;;;;;;11.23;3.87;;;;;;;;;;4388926;32;318318;-90
2023/09/14 13:50:54;;;;;;;7.93;4.32;;;;;;;;;;4379550;32;317825;-85
2023/09/14 13:53:21;;;;;;;13.13;3.83;;;;;;;;;;4381992;32;316808;-85
2023/09/14 13:55:48;;;;;;;11.57;4.28;;;;;;;;;;4374971;32;317878;-86
2023/09/14 13:58:15;;;;;;;10.73;4.80;;;;;;;;;;4377131;32;417459;-89
2023/09/14 14:00:42;;;;;;;13.15;5.03;;;;;;;;;;4388070;32;318499;-79
2023/09/14 14:03:11;;;;;;;10.02;4.53;;;;;;;;;;4370778;32;318396;-80
2023/09/14 14:05:38;;;;;;;9.70;4.70;;;;;;;;;;4389704;32;317777;-79
2023/09/14 14:08:06;;;;;;;17.55;5.22;;;;;;;;;;4380332;32;316648;-79
2023/09/14 14:10:33;;;;;;;12.40;4.50;;;;;;;;;;4389242;32;318658;-78
2023/09/14 14:13:01;;;;;;;12.37;4.37;;;;;;;;;;4375356;32;318649;-78
2023/09/14 14:15:28;;;;;;;7.12;4.25;;;;;;;;;;4391378;32;318357;-88
2023/09/14 14:17:54;;;;;;;17.12;4.20;;;;;;;;;;4380496;32;317317;-87
2023/09/14 14:20:23;;;;;;;14.50;3.62;;;;;;;;;;4376091;32;319104;-80
2023/09/14 14:22:49;;;;;;;10.32;3.72;;;;;;;;;;4371310;32;318495;-81
2023/09/14 14:25:16;;;;;;;14.38;4.90;;;;;;;;;;4378050;32;317862;-81
2023/09/14 14:27:43;;;;;;;22.15;5.05;;;;;;;;;;4389513;32;327303;-86
2023/09/14 14:30:11;;;;;;;14.23;5.50;;;;;;;;;;4380241;32;317776;-81
2023/09/14 14:32:38;;;;;;;13.95;4.78;;;;;;;;;;4389909;32;317638;-79
2023/09/14 14:35:06;;;;;;;20.02;5.60;;;;;;;;;;4371358;32;318269;-78
2023/09/14 14:37:34;;;;;;;12.52;5.10;;;;;;;;;;4387795;32;317872;-78
2023/09/14 14:40:00;;;;;;;10.38;3.53;;;;;;;;;;4375438;32;317702;-79
2023/09/14 14:42:27;;;;;;;16.33;5.75;;;;;;;;;;4385150;32;343413;-78
2023/09/14 14:44:54;;;;;;;16.45;4.45;;;;;;;;;;4379713;32;318425;-81
2023/09/14 14:47:21;;;;;;;13.40;4.72;;;;;;;;;;4385081;32;318553;-87
2023/09/14 14:49:48;;;;;;;20.08;4.72;;;;;;;;;;4388224;32;318344;-82
2023/09/14 14:52:15;;;;;;;9.35;4.93;;;;;;;;;;4364331;32;390218;-84